Time;durP1;ratioP1;P1;durP2;ratioP2;P2;SDS_P1;SDS_P2;PMS_P1;PMS_P2;Temp;Humidity;BMP_temperature;BMP_pressure;BME280_temperature;BME280_humidity;BME280_pressure;Samples;Min_cycle;Max_cycle;Signal;HPM_P1;HPM_P2
2023/06/12 00:01:36;;;;;;;5.78;3.83;;;18.30;92.30;;;17.18;100.00;97422.66;4999072;28;20077;-72
2023/06/12 00:04:04;;;;;;;12.40;3.90;;;18.40;91.90;;;17.15;100.00;97423.69;4993379;28;20125;-71
2023/06/12 00:06:35;;;;;;;6.75;3.97;;;18.30;91.80;;;16.87;100.00;97427.44;4997900;28;20047;-72
2023/06/12 00:09:04;;;;;;;7.22;3.65;;;18.30;91.80;;;16.81;100.00;97422.63;5002018;28;20511;-72
2023/06/12 00:11:31;;;;;;;11.00;4.15;;;18.20;92.00;;;16.57;100.00;97428.59;5000125;28;20487;-72
2023/06/12 00:13:58;;;;;;;6.32;4.05;;;18.00;92.10;;;16.46;100.00;97436.34;4998738;28;20074;-72
2023/06/12 00:16:27;;;;;;;5.07;4.00;;;17.80;92.70;;;16.41;100.00;97434.06;4993914;28;20057;-72
2023/06/12 00:18:54;;;;;;;5.13;3.80;;;17.80;92.80;;;16.38;100.00;97438.69;5000059;28;20054;-72
2023/06/12 00:21:23;;;;;;;8.25;4.13;;;17.70;93.40;;;16.20;100.00;97438.97;5001373;28;20088;-71
2023/06/12 00:23:50;;;;;;;5.35;3.67;;;17.60;94.00;;;16.07;100.00;97440.75;4978672;28;20042;-72
2023/06/12 00:26:17;;;;;;;8.05;4.35;;;17.50;94.10;;;16.09;100.00;97437.06;4996511;28;20060;-72
2023/06/12 00:28:45;;;;;;;7.78;3.75;;;17.40;94.40;;;16.08;100.00;97437.19;5011053;28;20141;-72
2023/06/12 00:31:12;;;;;;;5.40;3.67;;;17.40;94.80;;;16.02;100.00;97435.00;4998834;28;20058;-72
2023/06/12 00:33:41;;;;;;;6.75;3.85;;;17.30;95.50;;;15.96;100.00;97440.63;4986968;28;20056;-72
2023/06/12 00:36:07;;;;;;;6.90;3.70;;;17.30;95.40;;;15.95;100.00;97434.56;4999953;28;20054;-72
2023/06/12 00:38:35;;;;;;;6.75;4.13;;;17.20;95.90;;;15.77;100.00;97436.59;4996508;28;20993;-72
2023/06/12 00:41:02;;;;;;;8.05;4.20;;;17.20;95.90;;;15.57;100.00;97440.47;4995969;28;20458;-72
2023/06/12 00:43:29;;;;;;;6.70;4.07;;;17.00;96.30;;;15.57;100.00;97435.25;4994373;28;20164;-72
2023/06/12 00:45:57;;;;;;;6.63;3.55;;;17.00;96.70;;;15.46;100.00;97440.34;4995544;28;20053;-72
2023/06/12 00:48:24;;;;;;;6.35;3.92;;;16.90;96.90;;;15.41;100.00;97438.03;5000252;28;20061;-72
2023/06/12 00:50:56;;;;;;;5.32;3.92;;;16.90;97.30;;;15.16;100.00;97446.59;4996134;28;20057;-71
2023/06/12 00:53:24;;;;;;;7.32;4.25;;;16.70;98.10;;;15.30;100.00;97437.88;4978167;28;20050;-72
2023/06/12 00:55:55;;;;;;;5.82;4.30;;;16.70;98.60;;;15.41;100.00;97440.63;4998485;28;20049;-71
2023/06/12 00:58:22;;;;;;;6.20;3.80;;;16.70;99.10;;;15.38;100.00;97437.41;4983016;28;20057;-72
2023/06/12 01:00:49;;;;;;;7.80;4.20;;;16.70;99.60;;;15.36;100.00;97434.03;4998445;28;20082;-72
2023/06/12 01:03:17;;;;;;;7.18;4.10;;;16.60;99.70;;;15.26;100.00;97432.00;4995781;28;20261;-71
2023/06/12 01:05:46;;;;;;;6.00;4.00;;;16.60;99.90;;;15.37;100.00;97438.31;4998919;28;20056;-72
2023/06/12 01:08:40;;;;;;;6.80;3.90;;;16.60;99.90;;;15.11;100.00;97442.59;4998738;28;21041;-71
2023/06/12 01:11:11;;;;;;;4.80;3.85;;;16.50;99.90;;;14.80;100.00;97445.38;4996595;28;20116;-72
2023/06/12 01:13:38;;;;;;;8.13;4.05;;;16.40;99.90;;;14.73;100.00;97444.03;4998826;28;20054;-72
2023/06/12 01:16:05;;;;;;;6.47;4.15;;;16.20;99.90;;;14.94;100.00;97443.66;4994438;28;20147;-72
2023/06/12 01:18:33;;;;;;;7.30;4.70;;;16.30;99.90;;;14.96;100.00;97447.88;4992239;28;20046;-71
2023/06/12 01:21:09;;;;;;;6.20;4.30;;;16.20;99.90;;;14.94;100.00;97448.88;4998982;28;20077;-71
2023/06/12 01:23:39;;;;;;;5.97;4.05;;;16.20;99.90;;;14.78;100.00;97447.22;4984026;28;20050;-72
2023/06/12 01:26:43;;;;;;;6.20;4.13;;;16.20;99.90;;;14.69;100.00;97447.81;4998409;28;20069;-71
2023/06/12 01:29:40;;;;;;;5.78;3.88;;;16.20;99.90;;;14.97;100.00;97448.69;4992608;28;20182;-72
2023/06/12 01:32:15;;;;;;;6.35;4.07;;;16.10;99.90;;;14.86;100.00;97446.75;4977275;28;20042;-72
2023/06/12 01:35:05;;;;;;;9.10;4.07;;;16.10;99.90;;;14.79;100.00;97448.06;4995975;28;20050;-72
2023/06/12 01:37:47;;;;;;;7.45;3.95;;;15.90;99.90;;;14.84;100.00;97448.63;4988246;28;20054;-72
2023/06/12 01:40:17;;;;;;;5.40;3.88;;;15.80;99.90;;;14.79;100.00;97448.06;4985589;28;20077;-72
2023/06/12 01:42:44;;;;;;;15.43;4.60;;;15.90;99.90;;;14.54;100.00;97459.13;5008186;28;20054;-72
2023/06/12 01:45:11;;;;;;;6.55;4.25;;;15.90;99.90;;;14.57;100.00;97458.97;4996850;28;20149;-72
2023/06/12 01:47:38;;;;;;;9.48;4.60;;;15.90;99.90;;;14.75;100.00;97441.34;5002211;28;20052;-72
2023/06/12 01:50:08;;;;;;;5.97;3.92;;;15.90;99.90;;;14.66;100.00;97447.97;4996278;28;20511;-72
2023/06/12 01:52:36;;;;;;;7.13;4.20;;;15.90;99.90;;;14.68;100.00;97446.09;4998576;28;20058;-71
2023/06/12 01:55:04;;;;;;;7.10;4.15;;;15.90;99.90;;;14.43;100.00;97449.34;4996102;28;20050;-72
2023/06/12 01:57:32;;;;;;;6.80;4.07;;;15.80;99.90;;;14.40;100.00;97446.91;4996513;28;20115;-71
2023/06/12 02:00:00;;;;;;;6.93;4.32;;;15.80;99.90;;;14.38;100.00;97449.59;4991916;28;20077;-72
2023/06/12 02:02:27;;;;;;;6.70;5.05;;;15.80;99.90;;;14.13;100.00;97452.84;4993397;28;20053;-72
2023/06/12 02:04:54;;;;;;;6.15;4.25;;;15.60;99.90;;;14.08;100.00;97443.63;4993373;28;20054;-71
2023/06/12 02:07:21;;;;;;;6.93;4.82;;;15.50;99.90;;;14.11;100.00;97454.69;4992560;28;20050;-72
2023/06/12 02:09:48;;;;;;;8.00;4.65;;;15.40;99.90;;;13.97;100.00;97450.28;4995123;28;20576;-71
2023/06/12 02:12:16;;;;;;;6.82;4.32;;;15.40;99.90;;;14.00;100.00;97449.25;4993504;28;20416;-72
2023/06/12 02:14:43;;;;;;;8.65;4.68;;;15.30;99.90;;;13.86;100.00;97450.06;4992022;28;20574;-72
2023/06/12 02:17:13;;;;;;;8.32;4.47;;;15.30;99.90;;;13.89;100.00;97452.53;4999322;28;20130;-71
2023/06/12 02:19:41;;;;;;;6.10;4.00;;;15.20;99.90;;;13.80;100.00;97459.09;4976327;28;20053;-71
2023/06/12 02:22:08;;;;;;;5.43;4.25;;;15.20;99.90;;;13.80;100.00;97453.06;4994899;28;20081;-72
2023/06/12 02:24:35;;;;;;;8.10;4.10;;;15.10;99.90;;;13.66;100.00;97455.59;4994535;28;20049;-71
2023/06/12 02:27:03;;;;;;;5.78;4.30;;;15.10;99.90;;;13.41;100.00;97458.75;4993359;28;20169;-72
2023/06/12 02:29:31;;;;;;;5.90;4.32;;;15.00;99.90;;;13.51;100.00;97452.94;4998617;28;20056;-72
2023/06/12 02:31:58;;;;;;;7.35;5.00;;;15.00;99.90;;;13.57;100.00;97455.19;4983983;28;20082;-72
2023/06/12 02:34:25;;;;;;;6.85;4.35;;;14.90;99.90;;;13.60;100.00;97459.41;4997257;28;20057;-72
2023/06/12 02:36:52;;;;;;;6.78;4.22;;;14.90;99.90;;;13.56;100.00;97457.88;4992441;28;20534;-71
2023/06/12 02:39:19;;;;;;;6.60;4.57;;;14.80;99.90;;;13.30;100.00;97460.19;4991957;28;20078;-72
2023/06/12 02:41:48;;;;;;;10.48;4.43;;;14.70;99.90;;;13.08;100.00;97468.31;4991846;28;20172;-71
2023/06/12 02:44:16;;;;;;;5.97;4.38;;;14.60;99.90;;;13.03;100.00;97470.31;5002415;28;20054;-71
2023/06/12 02:47:09;;;;;;;6.53;4.55;;;14.50;99.90;;;13.21;100.00;97473.69;4994443;28;20053;-71
2023/06/12 02:49:44;;;;;;;8.05;4.78;;;14.50;99.90;;;13.47;100.00;97474.88;4993466;28;20046;-72
2023/06/12 02:52:12;;;;;;;9.25;5.35;;;14.50;99.90;;;13.34;100.00;97468.66;4996016;28;20072;-72
2023/06/12 02:54:39;;;;;;;9.00;4.57;;;14.60;99.90;;;13.54;100.00;97470.16;4992964;28;20141;-71
2023/06/12 02:57:06;;;;;;;6.70;5.07;;;14.60;99.90;;;13.66;100.00;97473.84;4980841;28;20184;-71
2023/06/12 02:59:34;;;;;;;8.13;4.40;;;14.70;99.90;;;13.50;100.00;97472.13;4994891;28;20241;-72
2023/06/12 03:02:01;;;;;;;6.25;4.13;;;14.80;99.90;;;13.65;100.00;97477.41;4995089;28;20699;-71
2023/06/12 03:04:28;;;;;;;7.32;4.53;;;14.80;99.90;;;13.37;100.00;97479.78;4993337;28;20078;-72
2023/06/12 03:06:55;;;;;;;7.05;4.88;;;14.80;99.90;;;13.07;100.00;97486.63;4996784;28;20136;-71
2023/06/12 03:09:23;;;;;;;6.40;4.28;;;14.60;99.90;;;12.88;100.00;97498.03;4993928;28;20140;-71
2023/06/12 03:11:53;;;;;;;6.47;4.38;;;14.50;99.90;;;13.03;100.00;97495.56;4994665;28;20121;-71
2023/06/12 03:14:24;;;;;;;10.38;4.95;;;14.40;99.90;;;13.12;100.00;97503.72;4996691;28;20081;-72
2023/06/12 03:16:52;;;;;;;5.45;4.03;;;14.40;99.90;;;13.19;100.00;97504.22;4992239;28;20062;-72
2023/06/12 03:19:19;;;;;;;9.27;5.28;;;14.40;99.90;;;13.29;100.00;97494.16;4996537;28;20515;-72
2023/06/12 03:21:46;;;;;;;6.00;4.78;;;14.50;99.90;;;13.15;100.00;97508.75;4992964;28;20058;-71
2023/06/12 03:24:13;;;;;;;7.05;4.53;;;14.50;99.90;;;13.10;100.00;97508.16;5011054;28;20477;-71
2023/06/12 03:26:41;;;;;;;6.47;4.43;;;14.40;99.90;;;12.85;100.00;97513.84;4998620;28;20487;-72
2023/06/12 03:29:10;;;;;;;6.20;4.60;;;14.30;99.90;;;12.89;100.00;97517.13;4995525;28;20073;-71
2023/06/12 03:31:38;;;;;;;8.05;4.78;;;14.20;99.90;;;12.86;100.00;97522.47;4991885;28;20128;-72
2023/06/12 03:34:05;;;;;;;6.35;5.05;;;14.10;99.90;;;12.99;100.00;97518.31;4996137;28;20046;-71
2023/06/12 03:36:37;;;;;;;7.47;5.20;;;14.20;99.90;;;12.98;100.00;97521.84;4993325;28;20070;-71
2023/06/12 03:39:05;;;;;;;7.70;5.22;;;14.20;99.90;;;12.96;100.00;97514.09;4993582;28;20047;-72
2023/06/12 03:41:32;;;;;;;10.65;5.25;;;14.20;99.90;;;12.91;100.00;97515.28;4995300;28;20506;-72
2023/06/12 03:44:00;;;;;;;8.07;5.70;;;14.20;99.90;;;12.79;100.00;97516.75;4994089;28;20070;-72
2023/06/12 03:46:32;;;;;;;8.13;5.32;;;14.10;99.90;;;12.83;100.00;97520.06;5000106;28;20054;-72
2023/06/12 03:49:00;;;;;;;10.57;5.15;;;14.10;99.90;;;12.80;100.00;97528.03;5002887;28;20051;-72
2023/06/12 03:51:27;;;;;;;7.47;5.10;;;14.00;99.90;;;12.96;100.00;97528.91;5014674;28;20050;-72
2023/06/12 03:53:54;;;;;;;9.05;4.97;;;14.10;99.90;;;12.95;100.00;97528.06;4999453;28;20173;-71
2023/06/12 03:56:22;;;;;;;9.43;5.20;;;14.20;99.90;;;12.85;100.00;97523.41;4979725;28;20596;-71
2023/06/12 03:58:49;;;;;;;8.32;4.95;;;14.20;99.90;;;12.93;100.00;97527.31;4983624;28;20046;-71
2023/06/12 04:01:16;;;;;;;10.70;5.30;;;14.20;99.90;;;12.90;100.00;97537.03;4996263;28;20113;-72
2023/06/12 04:03:48;;;;;;;8.02;5.40;;;14.20;99.90;;;13.07;100.00;97528.31;4999198;28;20050;-71
2023/06/12 04:06:15;;;;;;;10.55;5.32;;;14.10;99.90;;;12.96;100.00;97529.75;4997295;28;20050;-71
2023/06/12 04:08:44;;;;;;;6.75;5.22;;;14.20;99.90;;;12.94;100.00;97535.97;5009716;28;20108;-71
2023/06/12 04:11:13;;;;;;;8.30;5.30;;;14.10;99.90;;;12.72;100.00;97539.66;4993502;28;20053;-72
2023/06/12 04:13:41;;;;;;;7.03;5.18;;;14.10;99.90;;;12.90;100.00;97550.91;4998732;28;20056;-71
2023/06/12 04:16:10;;;;;;;7.85;5.22;;;14.20;99.90;;;13.03;100.00;97552.88;4994811;28;20177;-72
2023/06/12 04:18:38;;;;;;;7.18;5.30;;;14.20;99.90;;;13.14;100.00;97547.94;5000508;28;20544;-72
2023/06/12 04:21:07;;;;;;;6.68;4.85;;;14.20;99.90;;;13.24;100.00;97548.28;4994271;28;20101;-72
2023/06/12 04:23:37;;;;;;;5.93;4.65;;;14.30;99.90;;;13.29;100.00;97552.34;4996827;28;20057;-72
2023/06/12 04:26:07;;;;;;;6.18;5.03;;;14.40;99.90;;;13.59;100.00;97544.63;4995937;28;20148;-71
2023/06/12 04:28:36;;;;;;;5.82;4.65;;;14.50;99.90;;;13.60;100.00;97541.06;4993138;28;20046;-71
2023/06/12 04:31:04;;;;;;;6.20;4.78;;;14.70;99.90;;;13.65;100.00;97537.38;4993552;28;20053;-71
2023/06/12 04:33:32;;;;;;;6.07;5.05;;;14.70;99.90;;;13.71;100.00;97545.72;4995132;28;20057;-71
2023/06/12 04:36:03;;;;;;;6.43;5.10;;;14.80;99.90;;;13.90;100.00;97549.88;5000363;28;20053;-72
2023/06/12 04:38:38;;;;;;;6.43;5.38;;;14.80;99.90;;;14.00;100.00;97541.47;4992876;28;20046;-71
2023/06/12 04:41:06;;;;;;;6.07;5.15;;;14.90;99.90;;;14.14;100.00;97542.41;4994957;28;20069;-72
2023/06/12 04:43:33;;;;;;;6.45;5.07;;;15.00;99.90;;;14.32;100.00;97543.13;4996805;28;20062;-72
2023/06/12 04:46:01;;;;;;;6.78;5.55;;;15.20;99.90;;;14.46;100.00;97547.53;4996006;28;20760;-71
2023/06/12 04:48:28;;;;;;;7.22;5.45;;;15.30;99.90;;;14.50;100.00;97539.44;4994263;28;20049;-72
2023/06/12 04:50:56;;;;;;;7.78;5.40;;;15.40;99.90;;;14.67;100.00;97538.47;4993586;28;20129;-72
2023/06/12 04:53:27;;;;;;;7.70;5.47;;;15.50;99.90;;;14.93;100.00;97529.06;4997245;28;20054;-71
2023/06/12 04:55:56;;;;;;;7.13;5.60;;;15.60;99.90;;;15.07;100.00;97528.22;4998565;28;20065;-71
2023/06/12 04:58:23;;;;;;;6.25;5.65;;;15.80;99.90;;;15.06;100.00;97529.16;4998675;28;20477;-72
2023/06/12 05:00:55;;;;;;;6.32;5.30;;;15.90;99.90;;;15.15;100.00;97528.59;4997987;28;20522;-72
2023/06/12 05:03:22;;;;;;;5.72;4.90;;;16.00;99.90;;;15.37;100.00;97522.00;5000496;28;20070;-72
2023/06/12 05:05:54;;;;;;;9.35;5.38;;;16.10;99.90;;;15.54;100.00;97519.19;5004336;28;20057;-71
2023/06/12 05:08:21;;;;;;;7.97;5.90;;;16.20;99.90;;;15.72;100.00;97517.19;4994558;28;20054;-71
2023/06/12 05:10:48;;;;;;;8.70;5.75;;;16.40;99.90;;;15.82;100.00;97515.66;4983080;28;20058;-71
2023/06/12 05:13:15;;;;;;;7.65;5.32;;;16.50;99.90;;;16.07;100.00;97516.66;4996822;28;20443;-72
2023/06/12 05:15:42;;;;;;;7.05;5.60;;;16.70;99.90;;;16.27;100.00;97516.19;5000191;28;20163;-72
2023/06/12 05:18:09;;;;;;;7.10;5.07;;;16.80;99.90;;;16.60;100.00;97511.41;4996136;28;20050;-72
2023/06/12 05:20:37;;;;;;;10.45;5.35;;;17.00;99.90;;;16.85;100.00;97511.41;4996354;28;20077;-71
2023/06/12 05:23:05;;;;;;;8.43;5.40;;;17.30;99.90;;;17.03;100.00;97504.06;4993894;28;20082;-72
2023/06/12 05:25:32;;;;;;;6.40;4.95;;;17.50;99.90;;;17.30;100.00;97506.53;4997680;28;20058;-71
2023/06/12 05:27:59;;;;;;;7.00;4.63;;;17.70;99.90;;;17.43;100.00;97500.44;4995700;28;20209;-72
2023/06/12 05:30:26;;;;;;;8.25;5.15;;;17.90;99.90;;;17.53;100.00;97493.56;4997303;28;20082;-72
2023/06/12 05:32:53;;;;;;;6.55;4.93;;;18.10;99.90;;;17.68;100.00;97502.13;5000961;28;20129;-72
2023/06/12 05:35:21;;;;;;;8.65;4.95;;;18.20;99.90;;;17.82;100.00;97503.75;4997292;28;20372;-72
2023/06/12 05:37:48;;;;;;;10.52;4.93;;;18.40;99.90;;;18.10;100.00;97506.00;4996803;28;20046;-72
2023/06/12 05:40:15;;;;;;;6.93;4.65;;;18.50;99.90;;;18.26;100.00;97505.72;4998758;28;20050;-72
2023/06/12 05:42:42;;;;;;;6.70;4.22;;;18.70;99.90;;;18.39;100.00;97497.75;4999972;28;20109;-72
2023/06/12 05:45:09;;;;;;;6.20;4.55;;;18.90;99.90;;;18.54;100.00;97506.25;5015181;28;20057;-72
2023/06/12 05:47:36;;;;;;;6.00;4.47;;;19.00;99.90;;;18.54;100.00;97506.25;4999444;28;20188;-72
2023/06/12 05:50:04;;;;;;;6.30;4.03;;;19.20;99.90;;;18.81;100.00;97505.97;5000055;28;20567;-72
2023/06/12 05:52:32;;;;;;;6.40;4.55;;;19.20;99.90;;;18.74;100.00;97502.09;4999205;28;20050;-72
2023/06/12 05:54:59;;;;;;;7.18;4.50;;;19.30;99.90;;;18.86;100.00;97505.59;4996261;28;20081;-71
2023/06/12 05:57:33;;;;;;;7.63;4.30;;;19.40;99.90;;;19.04;100.00;97500.72;4994702;28;20530;-72
2023/06/12 06:00:01;;;;;;;5.85;4.18;;;19.60;99.90;;;19.06;100.00;97502.25;5001272;28;20533;-72
2023/06/12 06:02:28;;;;;;;7.82;4.38;;;19.70;99.90;;;19.26;100.00;97498.06;4994112;28;20058;-72
2023/06/12 06:04:55;;;;;;;5.35;4.47;;;19.80;99.90;;;19.25;100.00;97506.06;4997125;28;20063;-72
2023/06/12 06:07:22;;;;;;;6.70;4.70;;;19.90;99.90;;;19.39;100.00;97505.84;4997514;28;20057;-72
2023/06/12 06:09:50;;;;;;;5.85;4.75;;;20.00;99.90;;;19.32;100.00;97508.13;4992411;28;20116;-72
2023/06/12 06:12:17;;;;;;;7.97;4.40;;;20.00;99.90;;;19.49;100.00;97511.19;4992737;28;20514;-72
2023/06/12 06:14:44;;;;;;;9.63;4.85;;;20.10;99.90;;;19.49;100.00;97511.19;4995962;28;20066;-72
2023/06/12 06:17:11;;;;;;;5.55;4.28;;;20.10;99.90;;;19.53;100.00;97513.47;4992028;28;20191;-72
2023/06/12 06:19:38;;;;;;;6.88;4.13;;;20.10;99.90;;;19.61;100.00;97505.78;4993616;28;20086;-72
2023/06/12 06:22:07;;;;;;;5.97;4.15;;;20.10;99.90;;;19.79;100.00;97510.53;4993328;28;20057;-72
2023/06/12 06:24:34;;;;;;;5.30;4.30;;;20.30;99.90;;;19.87;100.00;97504.66;5001710;28;20160;-72
2023/06/12 06:27:02;;;;;;;8.52;4.30;;;20.50;99.90;;;19.89;100.00;97508.00;4996597;28;20120;-72
2023/06/12 06:29:29;;;;;;;11.45;4.95;;;20.60;99.90;;;19.88;100.00;97507.16;4993783;28;20140;-72
2023/06/12 06:31:56;;;;;;;6.43;4.43;;;20.60;99.90;;;19.83;100.00;97515.44;4994758;28;20050;-73
2023/06/12 06:34:25;;;;;;;4.88;4.30;;;20.60;99.90;;;20.04;100.00;97526.00;5000149;28;20104;-73
2023/06/12 06:36:52;;;;;;;7.00;4.85;;;20.70;99.90;;;19.99;100.00;97517.66;4995377;28;20062;-73
2023/06/12 06:39:19;;;;;;;6.95;4.57;;;20.70;99.90;;;20.20;100.00;97522.13;4998191;28;20141;-73
2023/06/12 06:41:47;;;;;;;7.97;4.60;;;20.80;99.90;;;20.33;100.00;97520.16;4995043;28;20046;-73
2023/06/12 06:44:14;;;;;;;5.30;4.00;;;20.90;99.90;;;20.40;100.00;97521.31;4992696;28;20108;-72
2023/06/12 06:46:41;;;;;;;5.13;4.40;;;21.00;99.90;;;20.48;100.00;97521.50;4993712;28;20054;-73
2023/06/12 06:49:08;;;;;;;7.35;4.07;;;21.00;99.90;;;20.49;100.00;97522.34;4994307;28;20217;-74
2023/06/12 06:51:36;;;;;;;5.25;4.18;;;21.10;99.90;;;20.75;100.00;97527.25;4993926;28;20510;-73
2023/06/12 06:54:03;;;;;;;6.90;4.40;;;21.20;99.90;;;20.69;100.00;97520.69;4993759;28;20046;-72
2023/06/12 06:56:30;;;;;;;6.88;4.50;;;21.30;99.90;;;20.86;100.00;97522.72;4995541;28;20054;-73
2023/06/12 06:58:58;;;;;;;6.88;4.78;;;21.40;99.90;;;20.95;100.00;97520.28;4998520;28;20096;-73
2023/06/12 07:01:29;;;;;;;5.18;4.00;;;21.50;99.90;;;21.28;100.00;97520.00;4982816;28;20062;-73
2023/06/12 07:03:56;;;;;;;7.27;4.00;;;21.70;99.90;;;21.16;100.00;97517.56;4995317;28;20053;-72
2023/06/12 07:06:23;;;;;;;6.03;4.05;;;21.80;99.90;;;21.09;100.00;97518.09;4997187;28;20309;-73
2023/06/12 07:08:50;;;;;;;6.97;4.65;;;21.90;99.90;;;21.15;100.00;97518.56;4999248;28;20053;-73
2023/06/12 07:11:20;;;;;;;7.72;4.45;;;22.00;99.90;;;21.37;100.00;97506.94;4994244;28;20054;-73
2023/06/12 07:13:47;;;;;;;5.80;4.78;;;22.00;99.90;;;21.51;100.00;97517.19;4995198;28;20078;-72
2023/06/12 07:16:15;;;;;;;7.88;4.53;;;22.00;99.90;;;21.45;100.00;97513.25;4994540;28;20054;-73
2023/06/12 07:18:42;;;;;;;5.55;4.47;;;22.10;99.90;;;21.64;100.00;97507.16;4995446;28;20555;-72
2023/06/12 07:21:09;;;;;;;9.95;4.53;;;22.20;99.90;;;21.62;100.00;97505.66;4994317;28;20553;-73
2023/06/12 07:23:36;;;;;;;6.78;4.45;;;22.30;99.90;;;21.82;100.00;97506.50;4998377;28;20043;-72
2023/06/12 07:26:03;;;;;;;9.82;4.93;;;22.40;99.90;;;21.66;100.00;97504.41;5001801;28;20042;-73
2023/06/12 07:28:50;;;;;;;6.22;4.05;;;22.50;99.90;;;22.00;100.00;97504.84;4998307;28;20399;-73
2023/06/12 07:31:18;;;;;;;7.65;4.70;;;22.50;99.90;;;22.21;100.00;97506.53;4999937;28;20515;-73
2023/06/12 07:33:45;;;;;;;8.32;4.45;;;22.70;99.90;;;22.18;100.00;97505.00;4998305;28;20053;-73
2023/06/12 07:36:12;;;;;;;6.38;3.83;;;22.80;99.90;;;22.34;100.00;97504.47;4997512;28;20202;-73
2023/06/12 07:38:39;;;;;;;6.53;4.63;;;22.80;99.90;;;22.37;100.00;97504.16;4997929;28;20129;-74
2023/06/12 07:41:07;;;;;;;5.32;4.22;;;22.90;99.90;;;22.56;100.00;97500.69;4996692;28;20053;-73
2023/06/12 07:43:37;;;;;;;6.65;4.15;;;23.00;99.90;;;22.77;100.00;97509.25;5000582;28;20050;-73
2023/06/12 07:46:04;;;;;;;6.70;4.30;;;23.20;99.90;;;22.76;100.00;97499.66;5000200;28;20050;-73
2023/06/12 07:48:32;;;;;;;6.18;3.67;;;23.40;99.90;;;23.11;100.00;97506.09;5006333;28;20190;-73
2023/06/12 07:50:59;;;;;;;4.93;4.32;;;23.50;99.90;;;23.52;100.00;97503.94;4993667;28;20065;-73
2023/06/12 07:53:26;;;;;;;6.55;4.35;;;23.70;99.90;;;23.45;100.00;97502.88;4998955;28;20050;-73
2023/06/12 07:56:04;;;;;;;7.40;3.88;;;23.80;99.50;;;23.20;100.00;97495.63;4999152;28;20052;-73
2023/06/12 07:58:34;;;;;;;6.18;3.60;;;24.00;98.90;;;23.74;100.00;97486.81;4997899;28;20129;-73
2023/06/12 08:01:04;;;;;;;6.30;4.22;;;24.00;99.40;;;23.40;100.00;97497.19;4998459;28;20057;-73
2023/06/12 08:03:39;;;;;;;5.68;3.80;;;24.20;98.30;;;23.75;100.00;97493.78;5000402;28;20058;-73
2023/06/12 08:06:13;;;;;;;5.88;3.92;;;24.20;98.10;;;23.45;100.00;97494.09;5013014;28;20050;-73
2023/06/12 08:08:46;;;;;;;6.15;4.15;;;24.30;97.90;;;23.80;100.00;97486.19;4998973;28;20683;-74
2023/06/12 08:11:14;;;;;;;7.55;4.10;;;24.30;98.20;;;23.90;100.00;97483.50;4986819;28;20060;-73
2023/06/12 08:13:41;;;;;;;7.93;4.70;;;24.40;97.40;;;24.16;100.00;97488.03;4993962;28;20050;-73
2023/06/12 08:16:09;;;;;;;5.72;4.22;;;24.60;97.60;;;24.15;100.00;97481.03;4998257;28;20419;-73
2023/06/12 08:18:36;;;;;;;5.97;4.20;;;24.60;97.50;;;24.28;100.00;97488.63;4997194;28;20058;-74
2023/06/12 08:21:03;;;;;;;5.40;4.50;;;24.80;97.10;;;24.01;100.00;97485.91;4997290;28;20484;-74
2023/06/12 08:23:31;;;;;;;6.45;4.47;;;24.80;96.90;;;24.13;100.00;97483.00;4999136;28;20054;-73
2023/06/12 08:25:58;;;;;;;4.25;3.80;;;24.90;96.90;;;24.69;100.00;97483.63;4995374;28;20124;-73
2023/06/12 08:28:26;;;;;;;4.43;3.75;;;25.00;96.50;;;24.67;100.00;97478.47;4998109;28;20054;-73
2023/06/12 08:30:57;;;;;;;6.53;3.75;;;25.30;96.30;;;24.71;100.00;97490.44;4995610;28;20434;-73
2023/06/12 08:33:25;;;;;;;6.03;3.95;;;25.30;96.30;;;25.22;100.00;97479.94;4996363;28;20046;-73
2023/06/12 08:35:52;;;;;;;4.28;3.40;;;25.40;96.30;;;25.27;100.00;97474.97;4996226;28;20121;-73
2023/06/12 08:38:19;;;;;;;4.75;3.20;;;25.70;95.00;;;25.88;100.00;97476.47;5001818;28;20056;-73
2023/06/12 08:40:47;;;;;;;6.78;3.15;;;25.80;94.10;;;27.00;100.00;97481.25;5003323;28;20137;-73
2023/06/12 08:43:14;;;;;;;8.20;3.33;;;26.00;95.40;;;26.13;100.00;97476.50;5000151;28;20518;-73
2023/06/12 08:45:50;;;;;;;4.47;3.08;;;26.10;93.70;;;26.52;100.00;97473.16;5002486;28;20100;-73
2023/06/12 08:48:20;;;;;;;3.85;3.15;;;26.10;94.00;;;27.04;100.00;97480.72;4995122;28;20132;-73
2023/06/12 08:50:47;;;;;;;6.72;3.05;;;26.20;93.30;;;26.95;100.00;97467.59;5003733;28;20146;-74
2023/06/12 08:53:18;;;;;;;4.80;2.78;;;26.50;92.10;;;26.40;100.00;97463.88;5000400;28;20050;-74
2023/06/12 08:55:45;;;;;;;5.10;2.88;;;26.70;91.90;;;26.85;100.00;97473.97;4997279;28;20172;-73
2023/06/12 08:58:13;;;;;;;3.65;2.70;;;26.80;91.70;;;28.18;100.00;97464.31;4984775;28;20105;-73
2023/06/12 09:00:40;;;;;;;5.35;2.67;;;27.20;92.10;;;28.38;100.00;97464.63;4998318;28;20502;-74
2023/06/12 09:03:07;;;;;;;5.45;2.65;;;27.80;91.40;;;27.46;100.00;97471.59;5013440;28;20225;-73
2023/06/12 09:05:37;;;;;;;4.88;2.90;;;28.00;90.10;;;27.61;99.84;97466.34;4997970;28;20060;-74
2023/06/12 09:08:05;;;;;;;6.50;3.00;;;28.40;88.40;;;28.10;98.56;97446.50;4997968;28;20463;-74
2023/06/12 09:10:35;;;;;;;4.55;2.60;;;28.70;88.30;;;27.31;96.54;97462.66;4999656;28;20112;-74
2023/06/12 09:13:10;;;;;;;4.68;2.63;;;28.80;85.10;;;26.91;98.72;97462.63;4996104;28;20483;-74
2023/06/12 09:15:41;;;;;;;3.85;2.60;;;28.70;84.30;;;26.90;97.42;97466.28;4995445;28;20571;-74
2023/06/12 09:18:10;;;;;;;6.93;2.70;;;28.60;83.50;;;27.30;97.72;97468.97;4997461;28;20061;-74
2023/06/12 09:20:39;;;;;;;3.92;2.63;;;28.80;83.60;;;27.70;93.13;97467.94;5001509;28;20128;-74
2023/06/12 09:23:13;;;;;;;3.75;2.80;;;29.20;82.10;;;27.93;92.19;97457.31;5005236;28;20541;-74
2023/06/12 09:25:43;;;;;;;4.05;2.85;;;29.50;81.40;;;28.31;88.60;97470.69;4992997;28;20064;-74
2023/06/12 09:28:36;;;;;;;3.80;2.60;;;29.70;79.70;;;27.96;86.54;97474.78;4997956;28;20065;-74
2023/06/12 09:31:04;;;;;;;3.42;2.30;;;30.30;78.30;;;28.27;83.67;97458.72;4997561;28;20097;-74
2023/06/12 09:33:32;;;;;;;4.40;2.72;;;30.40;77.20;;;27.78;86.55;97458.22;4996595;28;20134;-74
2023/06/12 09:36:00;;;;;;;4.90;2.33;;;30.00;77.20;;;28.63;88.71;97460.75;4998818;28;20133;-74
2023/06/12 09:38:35;;;;;;;5.30;2.95;;;30.00;78.10;;;28.90;88.07;97459.28;4992137;28;20504;-74
2023/06/12 09:41:05;;;;;;;6.72;3.20;;;30.10;78.60;;;27.40;91.42;97468.78;4988693;28;20050;-74
2023/06/12 09:43:32;;;;;;;5.45;3.15;;;29.50;78.40;;;26.50;97.84;97472.50;4996104;28;20050;-74
2023/06/12 09:46:06;;;;;;;5.57;3.28;;;29.00;79.10;;;26.29;100.00;97451.72;4992935;28;20101;-74
2023/06/12 09:48:43;;;;;;;7.32;4.07;;;28.40;80.50;;;27.12;100.00;97459.38;5001877;28;20042;-74
2023/06/12 09:51:11;;;;;;;6.35;3.63;;;28.30;81.50;;;27.33;98.73;97460.66;4998318;28;20053;-73
2023/06/12 09:53:39;;;;;;;4.85;3.50;;;28.40;81.30;;;26.45;100.00;97466.84;4992968;28;20061;-73
2023/06/12 09:56:09;;;;;;;7.00;3.22;;;28.30;80.80;;;26.83;100.00;97467.97;4997342;28;20479;-73
2023/06/12 09:58:38;;;;;;;5.28;3.17;;;28.10;81.10;;;28.22;92.84;97452.28;4998689;28;20482;-73
2023/06/12 10:01:07;;;;;;;4.07;3.10;;;28.70;80.30;;;27.37;93.88;97454.00;5003059;28;20054;-73
2023/06/12 10:03:38;;;;;;;5.10;3.17;;;28.60;79.70;;;26.48;95.88;97458.53;4997722;28;20054;-74
2023/06/12 10:06:12;;;;;;;5.45;3.47;;;28.30;79.90;;;27.26;96.62;97460.53;5000117;28;20108;-73
2023/06/12 10:08:41;;;;;;;5.55;3.47;;;28.30;80.60;;;27.40;96.99;97458.13;5011446;28;20054;-74
2023/06/12 10:11:09;;;;;;;5.25;3.10;;;28.10;80.60;;;27.86;87.55;97445.69;4997599;28;20101;-74
2023/06/12 10:13:36;;;;;;;7.53;3.70;;;28.70;78.30;;;29.12;84.01;97441.50;4995356;28;20058;-73
2023/06/12 10:16:05;;;;;;;4.20;3.22;;;29.30;77.90;;;28.63;81.79;97450.06;5000227;28;20061;-74
2023/06/12 10:18:34;;;;;;;5.43;2.97;;;29.70;76.60;;;29.06;79.62;97458.28;4965043;28;20415;-74
2023/06/12 10:21:03;;;;;;;6.78;3.35;;;30.00;75.30;;;28.71;75.65;97449.97;4995399;28;20069;-74